createdAt,value
2019-04-26T00:02:18.552Z,2.70
2019-04-26T00:04:46.879Z,2.40
2019-04-26T00:07:15.465Z,3.00
2019-04-26T00:09:44.810Z,3.77
2019-04-26T00:12:38.540Z,2.83
2019-04-26T00:15:25.829Z,1.93
2019-04-26T00:17:56.291Z,2.63
2019-04-26T00:20:24.354Z,2.13
2019-04-26T00:22:52.601Z,1.47
2019-04-26T00:25:20.795Z,4.40
2019-04-26T00:27:49.009Z,1.73
2019-04-26T00:30:17.451Z,7.87
2019-04-26T00:32:45.628Z,4.47
2019-04-26T00:35:16.073Z,3.50
2019-04-26T00:37:44.227Z,2.93
2019-04-26T00:40:13.264Z,3.90
2019-04-26T00:42:43.385Z,3.50
2019-04-26T00:45:12.342Z,4.03
2019-04-26T00:47:43.079Z,3.77
2019-04-26T00:50:11.617Z,2.25
2019-04-26T00:52:40.740Z,2.23
2019-04-26T00:55:09.299Z,4.03
2019-04-26T00:57:37.877Z,2.90
2019-04-26T01:00:06.882Z,3.50
2019-04-26T01:02:40.627Z,3.53
2019-04-26T01:05:09.099Z,2.22
2019-04-26T01:07:37.642Z,3.27
2019-04-26T01:10:05.799Z,5.27
2019-04-26T01:12:33.989Z,1.40
2019-04-26T01:15:02.148Z,4.90
2019-04-26T01:17:30.656Z,2.00
2019-04-26T01:20:01.217Z,3.67
2019-04-26T01:22:34.743Z,4.43
2019-04-26T01:25:04.797Z,2.80
2019-04-26T01:27:36.476Z,2.43
2019-04-26T01:30:09.951Z,4.20
2019-04-26T01:32:42.464Z,2.60
2019-04-26T01:35:11.263Z,4.07
2019-04-26T01:37:44.828Z,2.43
2019-04-26T01:40:17.255Z,3.17
2019-04-26T01:42:58.597Z,3.93
2019-04-26T01:45:47.115Z,4.30
2019-04-26T01:48:44.701Z,2.73
2019-04-26T01:51:22.799Z,4.83
2019-04-26T01:53:51.910Z,2.80
2019-04-26T01:56:29.200Z,4.17
2019-04-26T01:58:57.490Z,3.90
2019-04-26T02:01:37.050Z,2.27
2019-04-26T02:04:05.284Z,3.00
2019-04-26T02:06:35.235Z,3.43
2019-04-26T02:09:07.462Z,3.20
2019-04-26T02:11:36.011Z,1.97
2019-04-26T02:14:04.627Z,2.47
2019-04-26T02:16:33.341Z,2.10
2019-04-26T02:19:01.931Z,3.33
2019-04-26T02:21:42.015Z,3.97
2019-04-26T02:24:30.129Z,3.73
2019-04-26T02:27:00.137Z,3.37
2019-04-26T02:29:28.679Z,4.03
2019-04-26T02:32:05.706Z,3.37
2019-04-26T02:34:35.998Z,2.43
2019-04-26T02:37:09.454Z,3.00
2019-04-26T02:39:40.274Z,2.10
2019-04-26T02:42:40.688Z,2.67
2019-04-26T02:46:09.111Z,1.90
2019-04-26T02:49:12.769Z,2.73
2019-04-26T02:51:51.054Z,2.90
2019-04-26T02:54:45.080Z,3.77
2019-04-26T02:57:41.645Z,3.30
2019-04-26T03:00:13.775Z,2.97
2019-04-26T03:02:45.800Z,1.60
2019-04-26T03:05:16.008Z,3.83
2019-04-26T03:08:15.845Z,3.90
2019-04-26T03:10:50.975Z,4.53
2019-04-26T03:13:59.462Z,4.50
2019-04-26T03:17:00.136Z,9.50
2019-04-26T03:20:01.313Z,2.33
2019-04-26T03:23:05.802Z,2.90
2019-04-26T03:26:09.197Z,9.90
2019-04-26T03:29:06.559Z,3.60
2019-04-26T03:32:15.561Z,3.53
2019-04-26T03:35:43.974Z,2.87
2019-04-26T03:38:44.725Z,2.33
2019-04-26T03:41:42.893Z,3.63
2019-04-26T03:44:29.909Z,5.30
2019-04-26T03:47:04.530Z,3.50
2019-04-26T03:50:09.678Z,2.47
2019-04-26T03:53:42.022Z,2.90
2019-04-26T03:57:03.239Z,2.67
2019-04-26T04:00:03.061Z,2.70
2019-04-26T04:03:16.626Z,3.57
2019-04-26T04:05:49.904Z,5.33
2019-04-26T04:08:26.532Z,3.33
2019-04-26T04:11:04.066Z,3.40
2019-04-26T04:14:15.926Z,3.93
2019-04-26T04:17:07.902Z,4.83
2019-04-26T04:20:31.112Z,4.90
2019-04-26T04:23:45.429Z,3.27
2019-04-26T04:26:21.715Z,4.30
2019-04-26T04:29:50.524Z,3.83
2019-04-26T04:32:32.213Z,3.03
2019-04-26T04:35:07.178Z,5.27
2019-04-26T04:38:05.814Z,9.50
2019-04-26T04:41:13.138Z,10.67
2019-04-26T04:43:57.275Z,12.83
2019-04-26T04:47:41.294Z,13.00
2019-04-26T04:50:34.128Z,14.83
2019-04-26T04:53:43.457Z,12.57
2019-04-26T04:57:04.467Z,12.40
2019-04-26T05:00:07.148Z,12.63
2019-04-26T05:03:07.878Z,16.10
2019-04-26T05:06:39.057Z,15.27
2019-04-26T05:09:18.635Z,14.33
2019-04-26T05:12:21.611Z,10.47
2019-04-26T05:15:59.127Z,15.10
2019-04-26T05:19:42.925Z,16.80
2019-04-26T05:23:02.385Z,9.90
2019-04-26T05:26:33.134Z,10.97
2019-04-26T05:29:41.762Z,10.73
2019-04-26T05:33:32.330Z,10.37
2019-04-26T05:37:08.065Z,8.63
2019-04-26T05:40:24.176Z,10.37
2019-04-26T05:43:42.617Z,9.93
2019-04-26T05:47:09.548Z,9.23
2019-04-26T05:51:04.079Z,8.00
2019-04-26T05:54:19.299Z,7.10
2019-04-26T05:57:27.790Z,10.13
2019-04-26T06:00:34.462Z,10.90
2019-04-26T06:04:13.209Z,5.43
2019-04-26T06:07:26.269Z,6.43
2019-04-26T06:10:25.933Z,7.80
2019-04-26T06:13:44.230Z,7.67
2019-04-26T06:16:42.853Z,6.90
2019-04-26T06:19:28.484Z,6.67
2019-04-26T06:22:20.399Z,4.80
2019-04-26T06:25:21.355Z,8.30
2019-04-26T06:28:32.105Z,5.37
2019-04-26T06:31:21.415Z,9.67
2019-04-26T06:34:09.004Z,7.30
2019-04-26T06:37:03.024Z,10.73
2019-04-26T06:40:17.582Z,5.73
2019-04-26T06:43:34.057Z,5.30
2019-04-26T06:46:52.990Z,9.90
2019-04-26T06:50:20.711Z,10.70
2019-04-26T06:53:04.782Z,9.00
2019-04-26T06:55:58.140Z,6.77
2019-04-26T06:59:43.193Z,11.00
2019-04-26T07:02:46.294Z,9.97
2019-04-26T07:05:21.630Z,14.03
2019-04-26T07:08:21.241Z,18.60
2019-04-26T07:11:56.276Z,20.37
2019-04-26T07:15:12.083Z,13.87
2019-04-26T07:18:31.576Z,17.83
2019-04-26T07:21:22.448Z,17.23
2019-04-26T07:24:53.496Z,8.80
2019-04-26T07:27:48.223Z,8.10
2019-04-26T07:30:46.613Z,5.53
2019-04-26T07:34:16.770Z,6.50
2019-04-26T07:37:41.971Z,5.40
2019-04-26T07:40:52.719Z,6.97
2019-04-26T07:44:05.867Z,5.27
2019-04-26T07:47:24.579Z,6.33
2019-04-26T07:50:47.945Z,8.07
2019-04-26T07:54:07.159Z,6.80
2019-04-26T07:57:38.961Z,5.03
2019-04-26T08:00:44.677Z,6.20
2019-04-26T08:03:45.477Z,4.40
2019-04-26T08:06:51.567Z,8.27
2019-04-26T08:09:27.541Z,7.40
2019-04-26T08:12:04.960Z,5.93
2019-04-26T08:15:09.026Z,5.40
2019-04-26T08:17:56.257Z,3.73
2019-04-26T08:20:44.953Z,7.17
2019-04-26T08:23:39.213Z,5.13
2019-04-26T08:25:59.780Z,3.40
2019-04-26T08:28:32.233Z,7.10
2019-04-26T08:31:07.310Z,3.30
2019-04-26T08:33:48.561Z,4.10
2019-04-26T08:36:17.698Z,5.30
2019-04-26T08:38:48.820Z,4.73
2019-04-26T08:41:22.123Z,6.20
2019-04-26T08:44:14.462Z,8.73
2019-04-26T08:47:13.707Z,7.10
2019-04-26T08:49:46.890Z,6.90
2019-04-26T08:52:19.562Z,8.97
2019-04-26T08:54:55.129Z,6.63
2019-04-26T08:57:28.978Z,10.80
2019-04-26T09:00:01.739Z,10.13
2019-04-26T09:02:52.119Z,7.17
2019-04-26T09:05:45.731Z,12.43
2019-04-26T09:08:17.221Z,4.73
2019-04-26T09:10:49.165Z,7.73
2019-04-26T09:13:24.588Z,8.63
2019-04-26T09:16:22.926Z,8.00
2019-04-26T09:18:54.293Z,10.23
2019-04-26T09:21:40.911Z,4.57
2019-04-26T09:24:26.735Z,5.27
2019-04-26T09:26:59.176Z,6.63
2019-04-26T09:29:46.423Z,3.73
2019-04-26T09:32:17.609Z,7.07
2019-04-26T09:34:46.677Z,3.07
2019-04-26T09:37:15.275Z,4.03
2019-04-26T09:39:43.561Z,5.80
2019-04-26T09:42:22.619Z,6.33
2019-04-26T09:45:11.936Z,3.80
2019-04-26T09:47:46.173Z,3.67
2019-04-26T09:50:39.594Z,3.10
2019-04-26T09:53:08.025Z,6.50
2019-04-26T09:55:36.111Z,2.90
2019-04-26T09:58:04.577Z,6.10
2019-04-26T10:00:32.743Z,3.70
2019-04-26T10:03:05.425Z,4.03
2019-04-26T10:05:32.853Z,6.73
2019-04-26T10:08:01.131Z,2.53
2019-04-26T10:10:34.960Z,7.17
2019-04-26T10:13:15.106Z,5.33
2019-04-26T10:16:06.735Z,3.13
2019-04-26T10:18:35.552Z,6.03
2019-04-26T10:21:03.880Z,4.97
2019-04-26T10:23:32.107Z,5.13
2019-04-26T10:26:00.286Z,6.30
2019-04-26T10:28:28.324Z,3.33
2019-04-26T10:30:59.889Z,6.97
2019-04-26T10:33:28.097Z,5.33
2019-04-26T10:35:57.733Z,7.23
2019-04-26T10:38:26.011Z,6.20
2019-04-26T10:40:54.048Z,7.03
2019-04-26T10:43:22.204Z,5.27
2019-04-26T10:45:53.993Z,5.47
2019-04-26T10:48:23.045Z,7.00
2019-04-26T10:50:50.282Z,7.73
2019-04-26T10:53:36.353Z,7.07
2019-04-26T10:56:30.099Z,4.53
2019-04-26T10:59:15.498Z,5.03
2019-04-26T11:01:44.574Z,6.33
2019-04-26T11:04:12.628Z,6.50
2019-04-26T11:06:40.702Z,7.40
2019-04-26T11:09:10.003Z,6.00
2019-04-26T11:11:39.325Z,5.57
2019-04-26T11:14:07.576Z,5.30
2019-04-26T11:16:37.183Z,6.70
2019-04-26T11:19:06.268Z,9.00
2019-04-26T11:21:34.346Z,6.83
2019-04-26T11:24:02.542Z,6.27
2019-04-26T11:26:31.075Z,6.70
2019-04-26T11:29:00.731Z,8.13
2019-04-26T11:31:29.246Z,9.17
2019-04-26T11:34:05.065Z,7.57
2019-04-26T11:36:27.826Z,10.07
2019-04-26T11:38:56.006Z,8.90
2019-04-26T11:41:24.308Z,7.57
2019-04-26T11:43:53.013Z,8.77
2019-04-26T11:46:28.975Z,9.40
2019-04-26T11:48:58.750Z,9.23
2019-04-26T11:51:23.537Z,8.63
2019-04-26T11:53:52.546Z,10.30
2019-04-26T11:56:20.778Z,10.43
2019-04-26T11:58:52.437Z,9.13
2019-04-26T12:01:20.836Z,10.47
2019-04-26T12:04:14.538Z,7.63
2019-04-26T12:06:56.343Z,10.13
2019-04-26T12:09:31.662Z,8.87
2019-04-26T12:12:04.906Z,7.23
2019-04-26T12:14:33.544Z,7.93
2019-04-26T12:17:01.287Z,8.70
2019-04-26T12:19:30.577Z,10.70
2019-04-26T12:21:58.738Z,9.20
2019-04-26T12:24:29.998Z,10.40
2019-04-26T12:26:57.557Z,9.67
2019-04-26T12:29:25.821Z,12.10
2019-04-26T12:31:53.917Z,5.60
2019-04-26T12:34:22.092Z,5.73
2019-04-26T12:36:50.257Z,4.57
2019-04-26T12:39:18.396Z,3.77
2019-04-26T12:41:46.591Z,4.00
2019-04-26T12:44:14.753Z,5.47
2019-04-26T12:46:52.058Z,5.30
2019-04-26T12:49:20.247Z,3.80
2019-04-26T12:51:52.109Z,3.33
2019-04-26T12:54:20.326Z,4.90
2019-04-26T12:56:48.440Z,5.00
2019-04-26T12:59:16.667Z,6.87
2019-04-26T13:01:46.496Z,3.80
2019-04-26T13:04:14.774Z,4.00
2019-04-26T13:06:48.439Z,4.97
2019-04-26T13:09:22.019Z,3.53
2019-04-26T13:12:06.712Z,5.17
2019-04-26T13:14:44.410Z,4.13
2019-04-26T13:17:15.068Z,6.03
2019-04-26T13:19:43.115Z,4.10
2019-04-26T13:22:12.516Z,4.23
2019-04-26T13:24:41.258Z,4.00
2019-04-26T13:27:10.684Z,7.33
2019-04-26T13:29:39.294Z,4.90
2019-04-26T13:32:07.342Z,7.77
2019-04-26T13:34:37.261Z,7.80
2019-04-26T13:37:05.369Z,6.10
2019-04-26T13:39:33.465Z,5.30
2019-04-26T13:42:07.687Z,7.63
2019-04-26T13:44:58.850Z,7.60
2019-04-26T13:47:44.863Z,7.47
2019-04-26T13:50:16.548Z,8.67
2019-04-26T13:52:44.666Z,6.40
2019-04-26T13:55:13.034Z,8.23
2019-04-26T13:57:44.612Z,8.83
2019-04-26T14:00:15.652Z,11.20
2019-04-26T14:02:43.901Z,12.90
2019-04-26T14:05:15.168Z,13.17
2019-04-26T14:07:42.128Z,12.87
2019-04-26T14:10:10.361Z,12.47
2019-04-26T14:12:38.433Z,12.60
2019-04-26T14:15:08.457Z,13.00
2019-04-26T14:17:36.865Z,11.77
2019-04-26T14:20:05.636Z,12.90
2019-04-26T14:22:40.959Z,10.73
2019-04-26T14:25:12.203Z,10.40
2019-04-26T14:27:49.905Z,10.40
2019-04-26T14:30:16.695Z,12.10
2019-04-26T14:32:44.951Z,11.80
2019-04-26T14:35:15.576Z,10.53
2019-04-26T14:37:45.491Z,13.17
2019-04-26T14:40:17.298Z,11.13
2019-04-26T14:42:47.300Z,9.57
2019-04-26T14:45:23.334Z,10.83
2019-04-26T14:47:47.613Z,9.67
2019-04-26T14:50:14.717Z,9.30
2019-04-26T14:52:42.842Z,8.47
2019-04-26T14:55:10.858Z,7.77
2019-04-26T14:57:38.942Z,7.80
2019-04-26T15:00:09.088Z,6.77
2019-04-26T15:02:56.273Z,6.87
2019-04-26T15:05:49.316Z,7.10
2019-04-26T15:08:17.448Z,9.10
2019-04-26T15:10:48.779Z,8.23
2019-04-26T15:13:20.802Z,8.37
2019-04-26T15:15:46.794Z,9.20
2019-04-26T15:18:14.925Z,7.03
2019-04-26T15:20:42.986Z,5.90
2019-04-26T15:23:11.063Z,8.20
2019-04-26T15:25:41.346Z,5.30
2019-04-26T15:28:12.722Z,6.93
2019-04-26T15:30:45.901Z,7.23
2019-04-26T15:33:12.766Z,7.80
2019-04-26T15:35:42.202Z,5.97
2019-04-26T15:38:10.348Z,9.00
2019-04-26T15:41:05.451Z,6.03
2019-04-26T15:43:54.872Z,5.43
2019-04-26T15:46:42.635Z,4.97
2019-04-26T15:49:36.532Z,4.43
2019-04-26T15:52:03.713Z,3.83
2019-04-26T15:54:32.372Z,3.17
2019-04-26T15:57:02.116Z,4.73
2019-04-26T15:59:30.451Z,3.60
2019-04-26T16:01:58.504Z,5.17
2019-04-26T16:04:26.604Z,2.10
2019-04-26T16:06:54.840Z,1.67
2019-04-26T16:09:23.114Z,2.07
2019-04-26T16:11:55.174Z,1.93
2019-04-26T16:14:24.843Z,3.73
2019-04-26T16:16:52.480Z,4.60
2019-04-26T16:19:20.685Z,1.73
2019-04-26T16:21:54.063Z,3.13
2019-04-26T16:24:19.743Z,2.97
2019-04-26T16:26:53.609Z,2.97
2019-04-26T16:29:51.015Z,3.10
2019-04-26T16:32:43.234Z,2.00
2019-04-26T16:35:11.586Z,2.73
2019-04-26T16:37:39.702Z,7.10
2019-04-26T16:40:12.390Z,2.40
2019-04-26T16:42:38.735Z,1.73
2019-04-26T16:45:08.449Z,2.43
2019-04-26T16:47:45.001Z,1.93
2019-04-26T16:50:08.931Z,1.87
2019-04-26T16:52:42.348Z,2.57
2019-04-26T16:55:15.280Z,2.20
2019-04-26T16:57:43.779Z,2.27
2019-04-26T17:00:08.213Z,3.23
2019-04-26T17:02:37.069Z,2.10
2019-04-26T17:05:19.197Z,3.87
2019-04-26T17:07:39.319Z,3.47
2019-04-26T17:10:06.016Z,3.23
2019-04-26T17:12:34.065Z,4.80
2019-04-26T17:15:03.378Z,5.10
2019-04-26T17:17:33.197Z,2.93
2019-04-26T17:20:02.591Z,4.03
2019-04-26T17:22:56.982Z,4.17
2019-04-26T17:25:43.821Z,2.70
2019-04-26T17:28:13.958Z,2.83
2019-04-26T17:30:44.555Z,4.33
2019-04-26T17:33:13.115Z,3.40
2019-04-26T17:35:42.039Z,4.53
2019-04-26T17:38:11.527Z,6.03
2019-04-26T17:40:41.140Z,4.90
2019-04-26T17:43:09.959Z,8.50
2019-04-26T17:45:42.560Z,5.90
2019-04-26T17:48:13.838Z,6.10
2019-04-26T17:50:40.659Z,7.37
2019-04-26T17:53:10.660Z,7.07
2019-04-26T17:55:39.170Z,10.93
2019-04-26T17:58:11.787Z,12.23
2019-04-26T18:00:45.757Z,7.67
2019-04-26T18:03:07.625Z,9.53
2019-04-26T18:05:55.796Z,12.23
2019-04-26T18:08:31.462Z,11.47
2019-04-26T18:10:41.397Z,12.77
2019-04-26T18:13:11.269Z,12.37
2019-04-26T18:15:39.970Z,10.40
2019-04-26T18:18:35.873Z,11.47
2019-04-26T18:21:23.809Z,13.90
2019-04-26T18:23:57.039Z,13.00
2019-04-26T18:26:24.528Z,16.37
2019-04-26T18:28:54.976Z,18.43
2019-04-26T18:31:28.877Z,21.23
2019-04-26T18:33:54.811Z,21.50
2019-04-26T18:36:23.596Z,18.67
2019-04-26T18:38:53.565Z,20.30
2019-04-26T18:41:23.035Z,21.67
2019-04-26T18:43:54.048Z,21.57
2019-04-26T18:46:31.928Z,22.23
2019-04-26T18:49:00.367Z,21.00
2019-04-26T18:51:28.543Z,21.67
2019-04-26T18:54:09.219Z,22.93
2019-04-26T18:56:40.313Z,21.70
2019-04-26T18:59:11.748Z,19.90
2019-04-26T19:01:41.797Z,19.03
2019-04-26T19:04:13.543Z,19.00
2019-04-26T19:06:42.284Z,20.37
2019-04-26T19:09:12.027Z,21.60
2019-04-26T19:11:43.355Z,20.80
2019-04-26T19:14:26.558Z,22.97
2019-04-26T19:17:14.487Z,24.27
2019-04-26T19:20:02.111Z,25.57
2019-04-26T19:22:32.185Z,24.50
2019-04-26T19:25:02.051Z,27.57
2019-04-26T19:27:30.420Z,26.90
2019-04-26T19:30:04.306Z,30.93
2019-04-26T19:32:28.788Z,27.43
2019-04-26T19:35:00.697Z,31.00
2019-04-26T19:37:30.389Z,32.80
2019-04-26T19:39:57.123Z,32.70
2019-04-26T19:42:27.107Z,33.07
2019-04-26T19:45:11.733Z,33.43
2019-04-26T19:47:49.763Z,31.97
2019-04-26T19:50:30.745Z,34.63
2019-04-26T19:53:06.473Z,33.77
2019-04-26T19:56:12.153Z,32.93
2019-04-26T19:58:42.137Z,36.03
2019-04-26T20:01:12.207Z,39.20
2019-04-26T20:03:41.474Z,40.60
2019-04-26T20:06:14.117Z,41.40
2019-04-26T20:08:44.454Z,42.90
2019-04-26T20:11:12.884Z,46.60
2019-04-26T20:13:42.417Z,40.90
2019-04-26T20:16:10.564Z,43.77
2019-04-26T20:18:39.039Z,42.93
2019-04-26T20:21:12.387Z,42.20
2019-04-26T20:23:38.380Z,39.13
2019-04-26T20:26:09.003Z,38.47
2019-04-26T20:28:37.518Z,40.63
2019-04-26T20:31:25.503Z,39.30
2019-04-26T20:33:53.636Z,41.00
2019-04-26T20:36:21.749Z,39.10
2019-04-26T20:38:49.929Z,37.33
2019-04-26T20:41:18.002Z,34.83
2019-04-26T20:43:56.576Z,35.73
2019-04-26T20:46:16.500Z,36.80
2019-04-26T20:48:44.565Z,35.70
2019-04-26T20:51:12.792Z,37.93
2019-04-26T20:53:43.465Z,37.13
2019-04-26T20:56:16.655Z,38.63
2019-04-26T20:58:43.181Z,41.33
2019-04-26T21:01:14.095Z,38.80
2019-04-26T21:03:42.876Z,38.87
2019-04-26T21:06:11.567Z,42.60
2019-04-26T21:08:39.739Z,39.73
2019-04-26T21:11:07.828Z,41.20
2019-04-26T21:13:35.960Z,41.20
2019-04-26T21:16:10.450Z,40.60
2019-04-26T21:18:40.214Z,42.13
2019-04-26T21:21:06.051Z,41.03
2019-04-26T21:23:39.939Z,38.97
2019-04-26T21:26:42.475Z,42.13
2019-04-26T21:29:20.288Z,46.17
2019-04-26T21:32:06.574Z,43.37
2019-04-26T21:34:36.749Z,41.23
2019-04-26T21:37:23.721Z,43.07
2019-04-26T21:40:11.464Z,43.60
2019-04-26T21:42:42.665Z,41.60
2019-04-26T21:45:10.220Z,44.93
2019-04-26T21:47:38.391Z,42.33
2019-04-26T21:50:06.620Z,41.43
2019-04-26T21:52:34.893Z,43.17
2019-04-26T21:55:04.596Z,40.20
2019-04-26T21:57:34.890Z,46.93
2019-04-26T22:00:07.380Z,47.00
2019-04-26T22:02:37.673Z,45.33
2019-04-26T22:05:08.073Z,43.87
2019-04-26T22:07:39.554Z,47.50
2019-04-26T22:10:23.475Z,46.30
2019-04-26T22:12:51.789Z,51.50
2019-04-26T22:15:40.304Z,45.80
2019-04-26T22:18:16.466Z,44.87
2019-04-26T22:20:52.142Z,47.67
2019-04-26T22:23:51.781Z,50.33
2019-04-26T22:26:20.275Z,46.83
2019-04-26T22:28:48.318Z,50.73
2019-04-26T22:31:16.569Z,50.27
2019-04-26T22:33:44.710Z,46.73
2019-04-26T22:36:13.121Z,48.57
2019-04-26T22:38:42.853Z,52.17
2019-04-26T22:41:11.020Z,50.47
2019-04-26T22:43:59.705Z,47.13
2019-04-26T22:46:50.214Z,48.87
2019-04-26T22:49:18.593Z,48.90
2019-04-26T22:51:46.626Z,53.20
2019-04-26T22:54:14.746Z,55.10
2019-04-26T22:56:45.645Z,51.97
2019-04-26T22:59:13.950Z,50.80
2019-04-26T23:01:44.707Z,52.70
2019-04-26T23:04:16.245Z,51.40
2019-04-26T23:06:46.959Z,50.43
2019-04-26T23:09:16.780Z,52.93
2019-04-26T23:11:46.676Z,55.33
2019-04-26T23:14:28.918Z,53.60
2019-04-26T23:17:34.750Z,57.90
2019-04-26T23:20:29.100Z,51.33
2019-04-26T23:23:00.443Z,51.10
2019-04-26T23:25:27.711Z,54.77
2019-04-26T23:27:58.248Z,56.90
2019-04-26T23:30:27.657Z,56.67
2019-04-26T23:32:58.553Z,54.10
2019-04-26T23:35:26.673Z,55.33
2019-04-26T23:37:56.503Z,56.20
2019-04-26T23:40:28.770Z,57.03
2019-04-26T23:42:54.752Z,57.17
2019-04-26T23:45:23.157Z,56.97
2019-04-26T23:47:52.928Z,57.77
2019-04-26T23:50:25.658Z,54.07
2019-04-26T23:52:53.089Z,54.83
2019-04-26T23:55:21.419Z,52.87
2019-04-26T23:57:49.468Z,55.33
